PH-0086 weather

Alto Airfield Helipad
Tarlac City, Tarlac Province, Philippines

Public forecast

Using degrees Celsius for public forecast. Weather courtesy of forecast.io.

METAR (pilot weather report)

Closest report is Diosdado Macapagal International Airport, 14.9 nm (27.5 km) SSW. Retrieved 2019/09/15 09:00 UTC (21 minutes ago):

RPLC 150900Z 18008KT 8000 SCT018 OVC090 26/24 Q1005 RERA RMK A2968

TAF (pilot weather forecast)

Closest forecast is Diosdado Macapagal International Airport, 14.9 nm (27.5 km) SSW. Retrieved 2019/09/15 06:03 UTC (3 hours ago):

TAF RPLC 150500Z 1506/1612 18012KT 8000 SCT020 BKN100 TX30/1506Z TN25/1522Z TEMPO 1506/1512 22010KT 6000 -TSRA FEW015CB SCT020 OVC100